Time;durP1;ratioP1;P1;durP2;ratioP2;P2;SDS_P1;SDS_P2;PMS_P1;PMS_P2;Temp;Humidity;BMP_temperature;BMP_pressure;BME280_temperature;BME280_humidity;BME280_pressure;Samples;Min_cycle;Max_cycle;Signal;HPM_P1;HPM_P2
2021/01/17 00:02:16;;;;;;;20.40;9.40;;;;;;;;;;5047934;28;20120;-68
2021/01/17 00:04:43;;;;;;;22.13;10.02;;;;;;;;;;5047722;28;20041;-68
2021/01/17 00:07:10;;;;;;;22.63;10.18;;;;;;;;;;5046245;28;20544;-69
2021/01/17 00:09:36;;;;;;;24.07;9.83;;;;;;;;;;5045181;28;20094;-68
2021/01/17 00:12:04;;;;;;;17.60;7.75;;;;;;;;;;5048862;28;20435;-69
2021/01/17 00:14:31;;;;;;;;;;;;;;;;;;5039146;28;20045;-69
2021/01/17 00:16:58;;;;;;;24.30;10.47;;;;;;;;;;5045072;28;19921;-68
2021/01/17 00:19:30;;;;;;;22.00;10.23;;;;;;;;;;5049842;28;20041;-69
2021/01/17 00:21:56;;;;;;;15.87;7.53;;;;;;;;;;5051715;28;20053;-68
2021/01/17 00:24:22;;;;;;;25.37;10.90;;;;;;;;;;5041930;28;20041;-68
2021/01/17 00:26:49;;;;;;;23.00;9.85;;;;;;;;;;5041833;28;20060;-68
2021/01/17 00:29:15;;;;;;;23.20;10.37;;;;;;;;;;5044060;28;20044;-68
2021/01/17 00:31:41;;;;;;;26.23;11.07;;;;;;;;;;5050631;28;20497;-68
2021/01/17 00:34:08;;;;;;;22.08;9.52;;;;;;;;;;5042330;28;20076;-68
2021/01/17 00:36:38;;;;;;;25.77;11.17;;;;;;;;;;5037347;28;20049;-69
2021/01/17 00:39:07;;;;;;;21.53;9.97;;;;;;;;;;5038388;28;20436;-68
2021/01/17 00:41:34;;;;;;;25.87;10.67;;;;;;;;;;5046415;28;20052;-68
2021/01/17 00:44:02;;;;;;;25.17;10.48;;;;;;;;;;5043227;28;20053;-68
2021/01/17 00:46:34;;;;;;;21.90;9.57;;;;;;;;;;5044529;28;20075;-69
2021/01/17 00:49:01;;;;;;;22.73;9.77;;;;;;;;;;5041952;28;20037;-68
2021/01/17 00:51:35;;;;;;;19.23;9.13;;;;;;;;;;5051002;28;20128;-69
2021/01/17 00:54:01;;;;;;;23.73;10.97;;;;;;;;;;5048992;28;20099;-68
2021/01/17 00:56:28;;;;;;;21.63;10.07;;;;;;;;;;5043387;28;20049;-69
2021/01/17 00:58:54;;;;;;;19.40;9.33;;;;;;;;;;5050044;28;20720;-69
2021/01/17 01:01:20;;;;;;;21.73;9.53;;;;;;;;;;5049233;28;20044;-68
2021/01/17 01:03:47;;;;;;;22.97;10.50;;;;;;;;;;5051677;28;20572;-68
2021/01/17 01:06:17;;;;;;;19.67;10.00;;;;;;;;;;5042364;28;20041;-68
2021/01/17 01:08:45;;;;;;;21.53;9.77;;;;;;;;;;5042698;28;20049;-68
2021/01/17 01:11:11;;;;;;;;;;;;;;;;;;5046937;28;20053;-69
2021/01/17 01:13:37;;;;;;;20.47;9.30;;;;;;;;;;5042470;28;20249;-69
2021/01/17 01:16:10;;;;;;;19.07;9.00;;;;;;;;;;5038224;28;20048;-68
2021/01/17 01:18:36;;;;;;;21.27;9.87;;;;;;;;;;5051922;28;20056;-68
2021/01/17 01:21:03;;;;;;;22.33;9.53;;;;;;;;;;5040146;28;20045;-68
2021/01/17 01:23:29;;;;;;;20.83;9.17;;;;;;;;;;5041473;28;20044;-69
2021/01/17 01:25:59;;;;;;;22.60;9.80;;;;;;;;;;5030461;28;20451;-69
2021/01/17 01:28:25;;;;;;;21.87;10.10;;;;;;;;;;5048605;28;20053;-69
2021/01/17 01:30:54;;;;;;;18.80;9.07;;;;;;;;;;5046668;28;20131;-68
2021/01/17 01:33:21;;;;;;;21.37;9.77;;;;;;;;;;5044929;28;20049;-68
2021/01/17 01:35:48;;;;;;;14.93;7.18;;;;;;;;;;5045499;28;20069;-69
2021/01/17 01:38:14;;;;;;;19.40;9.45;;;;;;;;;;5044739;28;20049;-68
2021/01/17 01:40:41;;;;;;;19.70;8.80;;;;;;;;;;5050072;28;20045;-69
2021/01/17 01:43:07;;;;;;;19.98;9.32;;;;;;;;;;5042094;28;20468;-69
2021/01/17 01:45:33;;;;;;;22.60;10.00;;;;;;;;;;5045138;28;20049;-68
2021/01/17 01:48:02;;;;;;;19.40;9.47;;;;;;;;;;5051305;28;20037;-68
2021/01/17 01:50:28;;;;;;;25.53;10.50;;;;;;;;;;5049545;28;20096;-68
2021/01/17 01:52:54;;;;;;;20.43;9.60;;;;;;;;;;5044673;28;20049;-69
2021/01/17 01:55:20;;;;;;;21.50;9.10;;;;;;;;;;5046608;28;20056;-68
2021/01/17 01:57:47;;;;;;;20.93;10.10;;;;;;;;;;5041831;28;20055;-68
2021/01/17 02:00:14;;;;;;;20.52;9.82;;;;;;;;;;5042559;28;20504;-68
2021/01/17 02:02:41;;;;;;;23.00;9.73;;;;;;;;;;5043781;28;20041;-68
2021/01/17 02:05:08;;;;;;;20.55;9.30;;;;;;;;;;5036334;28;20669;-68
2021/01/17 02:07:46;;;;;;;17.80;7.47;;;;;;;;;;5039020;28;20560;-68
2021/01/17 02:10:13;;;;;;;21.20;9.40;;;;;;;;;;5038236;28;20033;-69
2021/01/17 02:12:44;;;;;;;23.50;10.37;;;;;;;;;;5040582;28;20068;-68
2021/01/17 02:15:17;;;;;;;20.87;9.63;;;;;;;;;;5041974;28;20119;-69
2021/01/17 02:17:44;;;;;;;21.40;9.80;;;;;;;;;;5035606;28;20131;-68
2021/01/17 02:20:11;;;;;;;;;;;;;;;;;;5046375;28;20550;-69
2021/01/17 02:22:44;;;;;;;17.90;9.00;;;;;;;;;;5040500;28;20587;-68
2021/01/17 02:25:12;;;;;;;19.93;9.10;;;;;;;;;;5045431;28;20048;-69
2021/01/17 02:27:40;;;;;;;16.50;8.63;;;;;;;;;;5048014;28;20051;-68
2021/01/17 02:30:08;;;;;;;22.43;9.63;;;;;;;;;;5047894;28;20099;-68
2021/01/17 02:32:37;;;;;;;21.37;9.20;;;;;;;;;;5039545;28;20103;-69
2021/01/17 02:35:04;;;;;;;19.03;9.13;;;;;;;;;;5046212;28;20065;-69
2021/01/17 02:37:49;;;;;;;15.57;7.55;;;;;;;;;;5038267;28;20550;-69
2021/01/17 02:40:34;;;;;;;21.05;9.18;;;;;;;;;;5047201;28;20052;-69
2021/01/17 02:43:01;;;;;;;18.10;8.73;;;;;;;;;;5047168;28;20496;-68
2021/01/17 02:45:27;;;;;;;22.67;10.10;;;;;;;;;;5049949;28;20493;-68
2021/01/17 02:47:54;;;;;;;23.57;10.03;;;;;;;;;;5044408;28;20086;-69
2021/01/17 02:50:20;;;;;;;17.90;9.48;;;;;;;;;;5048018;28;20043;-69
2021/01/17 02:52:54;;;;;;;20.93;9.43;;;;;;;;;;5037776;28;20041;-69
2021/01/17 02:55:20;;;;;;;19.37;9.43;;;;;;;;;;5046857;28;20131;-69
2021/01/17 02:57:48;;;;;;;19.00;8.97;;;;;;;;;;5044083;28;20136;-69
2021/01/17 03:00:17;;;;;;;20.87;8.97;;;;;;;;;;5041255;28;20043;-68
2021/01/17 03:02:44;;;;;;;21.33;9.70;;;;;;;;;;5041713;28;20124;-69
2021/01/17 03:05:13;;;;;;;17.83;9.82;;;;;;;;;;5038673;28;20051;-68
2021/01/17 03:07:40;;;;;;;18.70;8.67;;;;;;;;;;5047065;28;20588;-68
2021/01/17 03:10:08;;;;;;;19.55;9.85;;;;;;;;;;5039576;28;20131;-68
2021/01/17 03:12:34;;;;;;;18.30;9.30;;;;;;;;;;5049606;28;20049;-69
2021/01/17 03:15:01;;;;;;;18.57;8.90;;;;;;;;;;5040847;28;20041;-68
2021/01/17 03:17:27;;;;;;;22.00;9.60;;;;;;;;;;5047968;28;20037;-69
2021/01/17 03:19:54;;;;;;;22.73;9.57;;;;;;;;;;5040942;28;20073;-69
2021/01/17 03:22:20;;;;;;;21.00;9.67;;;;;;;;;;5040905;28;20038;-68
2021/01/17 03:24:46;;;;;;;20.23;9.23;;;;;;;;;;5038558;28;20370;-68
2021/01/17 03:27:13;;;;;;;23.73;9.70;;;;;;;;;;5045608;28;20057;-69
2021/01/17 03:29:39;;;;;;;20.13;9.70;;;;;;;;;;5039892;28;20113;-69
2021/01/17 03:32:06;;;;;;;23.42;10.15;;;;;;;;;;5051369;28;20053;-68
2021/01/17 03:34:33;;;;;;;21.98;10.23;;;;;;;;;;5048923;28;20045;-69
2021/01/17 03:36:59;;;;;;;23.23;9.93;;;;;;;;;;5045550;28;20493;-69
2021/01/17 03:39:26;;;;;;;23.83;9.43;;;;;;;;;;5041017;28;20037;-68
2021/01/17 03:41:52;;;;;;;22.33;10.10;;;;;;;;;;5046736;28;20299;-68
2021/01/17 03:44:18;;;;;;;20.47;9.57;;;;;;;;;;5050304;28;20053;-69
2021/01/17 03:46:44;;;;;;;23.47;10.77;;;;;;;;;;5043128;28;20117;-68
2021/01/17 03:49:11;;;;;;;15.88;8.10;;;;;;;;;;5046082;28;20052;-69
2021/01/17 03:51:37;;;;;;;22.10;10.50;;;;;;;;;;5046021;28;20381;-69
2021/01/17 03:54:04;;;;;;;23.17;10.43;;;;;;;;;;5048851;28;20419;-68
2021/01/17 03:56:30;;;;;;;26.27;11.27;;;;;;;;;;5040038;28;20041;-69
2021/01/17 03:58:56;;;;;;;23.13;10.87;;;;;;;;;;5036797;28;20041;-68
2021/01/17 04:01:22;;;;;;;23.53;10.07;;;;;;;;;;5045167;28;20040;-69
2021/01/17 04:03:49;;;;;;;23.00;9.03;;;;;;;;;;5053479;28;20048;-69
2021/01/17 04:06:15;;;;;;;27.43;12.17;;;;;;;;;;5051958;28;20052;-69
2021/01/17 04:08:41;;;;;;;23.50;11.20;;;;;;;;;;5048193;28;20524;-69
2021/01/17 04:11:08;;;;;;;24.40;11.32;;;;;;;;;;5048857;28;20056;-68
2021/01/17 04:13:35;;;;;;;24.03;10.80;;;;;;;;;;5048790;28;20044;-68
2021/01/17 04:16:01;;;;;;;23.37;10.87;;;;;;;;;;5045293;28;20052;-68
2021/01/17 04:18:27;;;;;;;26.43;11.30;;;;;;;;;;5039463;28;20076;-69
2021/01/17 04:20:53;;;;;;;18.90;9.33;;;;;;;;;;5049028;28;20049;-68
2021/01/17 04:23:20;;;;;;;20.43;8.40;;;;;;;;;;5050487;28;20047;-68
2021/01/17 04:25:46;;;;;;;24.97;10.60;;;;;;;;;;5044067;28;20036;-68
2021/01/17 04:28:12;;;;;;;24.20;10.43;;;;;;;;;;5041886;28;20122;-69
2021/01/17 04:30:38;;;;;;;21.63;10.53;;;;;;;;;;5047110;28;20488;-68
2021/01/17 04:33:04;;;;;;;20.77;9.88;;;;;;;;;;5046941;28;20467;-68
2021/01/17 04:35:31;;;;;;;24.20;10.83;;;;;;;;;;5046692;28;20041;-68
2021/01/17 04:37:58;;;;;;;21.70;10.63;;;;;;;;;;5045619;28;20045;-68
2021/01/17 04:40:25;;;;;;;19.23;9.70;;;;;;;;;;5042918;28;20115;-69
2021/01/17 04:42:56;;;;;;;22.37;10.63;;;;;;;;;;5049177;28;20041;-68
2021/01/17 04:45:23;;;;;;;21.77;10.13;;;;;;;;;;5052771;28;20080;-69
2021/01/17 04:47:50;;;;;;;15.90;7.25;;;;;;;;;;5050606;28;20044;-68
2021/01/17 04:50:19;;;;;;;21.73;9.13;;;;;;;;;;5043212;28;20172;-69
2021/01/17 04:52:54;;;;;;;20.80;9.87;;;;;;;;;;5039363;28;20572;-69
2021/01/17 04:55:23;;;;;;;23.77;9.97;;;;;;;;;;5039806;28;20052;-68
2021/01/17 04:57:49;;;;;;;19.83;9.97;;;;;;;;;;5042132;28;20046;-69
2021/01/17 05:00:20;;;;;;;18.47;8.70;;;;;;;;;;5048132;28;20076;-68
2021/01/17 05:03:10;;;;;;;20.87;9.70;;;;;;;;;;5046492;28;20045;-68
2021/01/17 05:05:46;;;;;;;21.97;9.20;;;;;;;;;;5020347;28;20049;-69
2021/01/17 05:08:15;;;;;;;22.05;10.00;;;;;;;;;;5035708;28;20042;-68
2021/01/17 05:10:46;;;;;;;22.57;9.90;;;;;;;;;;5047577;28;20087;-68
2021/01/17 05:13:16;;;;;;;21.07;9.67;;;;;;;;;;5048665;28;20045;-69
2021/01/17 05:15:42;;;;;;;19.87;9.80;;;;;;;;;;5048745;28;20055;-68
2021/01/17 05:18:09;;;;;;;21.58;10.27;;;;;;;;;;5044689;28;20049;-69
2021/01/17 05:20:35;;;;;;;21.67;9.77;;;;;;;;;;5042906;28;20049;-69
2021/01/17 05:23:07;;;;;;;23.90;10.02;;;;;;;;;;5039464;28;20049;-69
2021/01/17 05:25:34;;;;;;;21.70;9.97;;;;;;;;;;5051688;28;20044;-69
2021/01/17 05:28:00;;;;;;;22.27;9.57;;;;;;;;;;5049533;28;21700;-69
2021/01/17 05:30:27;;;;;;;22.95;10.10;;;;;;;;;;5045131;28;20076;-68
2021/01/17 05:32:54;;;;;;;18.67;9.68;;;;;;;;;;5041886;28;20042;-68
2021/01/17 05:35:22;;;;;;;23.98;9.68;;;;;;;;;;5042069;28;20135;-68
2021/01/17 05:37:53;;;;;;;20.92;9.63;;;;;;;;;;5040773;28;20064;-68
2021/01/17 05:40:19;;;;;;;22.93;10.37;;;;;;;;;;5038982;28;20050;-69
2021/01/17 05:42:46;;;;;;;22.80;10.10;;;;;;;;;;5044036;28;20044;-69
2021/01/17 05:45:12;;;;;;;18.25;9.43;;;;;;;;;;5048464;28;20041;-68
2021/01/17 05:47:39;;;;;;;23.93;10.23;;;;;;;;;;5048610;28;20044;-68
2021/01/17 05:50:12;;;;;;;18.77;9.80;;;;;;;;;;5045872;28;20519;-69
2021/01/17 05:52:39;;;;;;;20.00;9.63;;;;;;;;;;5044107;28;20065;-69
2021/01/17 05:55:06;;;;;;;21.95;10.10;;;;;;;;;;5044082;28;20140;-68
2021/01/17 05:57:33;;;;;;;24.73;10.75;;;;;;;;;;5039390;28;20043;-68
2021/01/17 06:00:00;;;;;;;;;;;;;;;;;;5046073;28;20042;-68
2021/01/17 06:02:27;;;;;;;21.50;9.67;;;;;;;;;;5042114;28;20424;-68
2021/01/17 06:05:00;;;;;;;20.13;9.85;;;;;;;;;;5046201;28;20064;-68
2021/01/17 06:07:29;;;;;;;19.53;9.63;;;;;;;;;;5043615;28;20033;-68
2021/01/17 06:09:56;;;;;;;20.70;10.18;;;;;;;;;;5047142;28;20063;-68
2021/01/17 06:12:22;;;;;;;;;;;;;;;;;;5050448;28;20044;-69
2021/01/17 06:15:00;;;;;;;23.48;10.15;;;;;;;;;;5038434;28;19983;-69
2021/01/17 06:17:28;;;;;;;21.50;10.32;;;;;;;;;;5036003;28;20090;-69
2021/01/17 06:19:55;;;;;;;21.67;9.88;;;;;;;;;;5046890;28;20555;-68
2021/01/17 06:22:22;;;;;;;15.02;7.70;;;;;;;;;;5041701;28;20046;-68
2021/01/17 06:24:57;;;;;;;21.90;10.53;;;;;;;;;;5039538;28;20130;-69
2021/01/17 06:27:25;;;;;;;19.87;10.50;;;;;;;;;;5041380;28;20048;-68
2021/01/17 06:29:51;;;;;;;21.73;10.13;;;;;;;;;;5037269;28;20045;-69
2021/01/17 06:32:18;;;;;;;21.97;10.63;;;;;;;;;;5043876;28;20501;-68
2021/01/17 06:34:45;;;;;;;20.85;9.88;;;;;;;;;;5041908;28;20040;-68
2021/01/17 06:37:12;;;;;;;25.50;10.32;;;;;;;;;;5042406;28;20052;-69
2021/01/17 06:39:43;;;;;;;20.83;9.43;;;;;;;;;;5045824;28;20087;-69
2021/01/17 06:42:11;;;;;;;17.93;9.23;;;;;;;;;;5046318;28;20045;-68
2021/01/17 06:44:38;;;;;;;21.10;9.48;;;;;;;;;;5037230;28;20034;-69
2021/01/17 06:47:04;;;;;;;14.65;7.15;;;;;;;;;;5037115;28;20068;-68
2021/01/17 06:49:31;;;;;;;14.32;6.80;;;;;;;;;;5040091;28;20460;-68
2021/01/17 06:51:58;;;;;;;19.88;9.35;;;;;;;;;;5047170;28;20037;-68
2021/01/17 06:54:31;;;;;;;18.90;8.77;;;;;;;;;;5043815;28;20057;-68
2021/01/17 06:56:58;;;;;;;19.60;9.63;;;;;;;;;;5050041;28;20040;-68
2021/01/17 06:59:43;;;;;;;21.15;9.95;;;;;;;;;;5044340;28;20075;-68
2021/01/17 07:02:10;;;;;;;21.92;9.90;;;;;;;;;;5044714;28;20053;-68
2021/01/17 07:04:52;;;;;;;21.25;10.32;;;;;;;;;;5049142;28;20044;-69
2021/01/17 07:07:37;;;;;;;23.98;9.95;;;;;;;;;;5046904;28;20076;-68
2021/01/17 07:10:04;;;;;;;19.58;9.85;;;;;;;;;;5047866;28;20539;-68
2021/01/17 07:12:50;;;;;;;22.00;10.20;;;;;;;;;;5045647;28;20044;-69
2021/01/17 07:15:22;;;;;;;22.25;10.00;;;;;;;;;;5045419;28;20488;-68
2021/01/17 07:17:49;;;;;;;20.45;9.75;;;;;;;;;;5049720;28;20037;-69
2021/01/17 07:20:15;;;;;;;18.48;9.57;;;;;;;;;;5059980;28;20049;-69
2021/01/17 07:22:43;;;;;;;19.60;8.88;;;;;;;;;;5046366;28;20041;-69
2021/01/17 07:25:10;;;;;;;21.58;9.02;;;;;;;;;;5051960;28;20515;-69
2021/01/17 07:27:52;;;;;;;18.20;8.53;;;;;;;;;;5051612;28;20061;-69
2021/01/17 07:30:19;;;;;;;17.02;8.90;;;;;;;;;;5041269;28;20048;-69
2021/01/17 07:32:53;;;;;;;18.25;8.43;;;;;;;;;;5052441;28;20115;-68
2021/01/17 07:35:23;;;;;;;19.80;9.38;;;;;;;;;;5047893;28;20527;-68
2021/01/17 07:37:52;;;;;;;22.83;10.23;;;;;;;;;;5051684;28;20048;-68
2021/01/17 07:40:48;;;;;;;22.53;10.37;;;;;;;;;;5049924;28;20052;-69
2021/01/17 07:43:08;;;;;;;21.17;9.70;;;;;;;;;;5047203;28;20037;-68
2021/01/17 07:45:38;;;;;;;20.37;9.90;;;;;;;;;;5042643;28;20128;-68
2021/01/17 07:48:06;;;;;;;20.77;9.73;;;;;;;;;;5043579;28;20428;-68
2021/01/17 07:50:39;;;;;;;23.13;9.65;;;;;;;;;;5045708;28;20051;-69
2021/01/17 07:53:09;;;;;;;20.83;9.88;;;;;;;;;;5050984;28;20048;-69
2021/01/17 07:55:35;;;;;;;20.67;9.77;;;;;;;;;;5052213;28;20037;-68
2021/01/17 07:58:03;;;;;;;20.40;8.97;;;;;;;;;;5048524;28;20044;-68
2021/01/17 08:00:29;;;;;;;18.33;8.85;;;;;;;;;;5043785;28;20483;-68
2021/01/17 08:02:56;;;;;;;15.85;7.90;;;;;;;;;;5046360;28;20049;-69
2021/01/17 08:05:41;;;;;;;17.85;8.27;;;;;;;;;;5047073;28;20556;-68
2021/01/17 08:08:26;;;;;;;13.80;8.10;;;;;;;;;;5044609;28;20045;-68
2021/01/17 08:10:53;;;;;;;18.40;8.15;;;;;;;;;;5046134;28;20136;-69
2021/01/17 08:13:19;;;;;;;20.20;10.50;;;;;;;;;;5041280;28;20056;-68
2021/01/17 08:15:45;;;;;;;15.48;8.02;;;;;;;;;;5039947;28;20041;-68
2021/01/17 08:18:31;;;;;;;14.05;7.20;;;;;;;;;;5049445;28;20076;-68
2021/01/17 08:21:17;;;;;;;12.68;6.63;;;;;;;;;;5043116;28;20044;-68
2021/01/17 08:24:07;;;;;;;14.48;8.05;;;;;;;;;;5048359;28;20041;-68
2021/01/17 08:26:51;;;;;;;15.32;7.35;;;;;;;;;;5035624;28;20049;-68
2021/01/17 08:29:18;;;;;;;13.25;7.07;;;;;;;;;;5045082;28;20041;-68
2021/01/17 08:31:44;;;;;;;12.10;6.53;;;;;;;;;;5046462;28;20132;-68
2021/01/17 08:34:11;;;;;;;12.30;6.72;;;;;;;;;;5046060;28;20078;-68
2021/01/17 08:36:38;;;;;;;17.38;8.52;;;;;;;;;;5045709;28;20048;-68
2021/01/17 08:39:04;;;;;;;15.50;7.90;;;;;;;;;;5044979;28;20041;-69
2021/01/17 08:41:31;;;;;;;15.77;7.93;;;;;;;;;;5047756;28;20049;-68
2021/01/17 08:43:57;;;;;;;17.13;7.93;;;;;;;;;;5047726;28;20303;-68
2021/01/17 08:46:36;;;;;;;14.50;7.45;;;;;;;;;;5044661;28;20076;-68
2021/01/17 08:49:03;;;;;;;15.45;7.63;;;;;;;;;;5049901;28;20063;-68
2021/01/17 08:51:30;;;;;;;12.90;7.53;;;;;;;;;;5038321;28;20036;-69
2021/01/17 08:53:56;;;;;;;14.13;6.53;;;;;;;;;;5044954;28;20496;-69
2021/01/17 08:56:23;;;;;;;14.48;7.47;;;;;;;;;;5044072;28;20060;-68
2021/01/17 08:58:50;;;;;;;13.13;7.00;;;;;;;;;;5039991;28;20106;-68
2021/01/17 09:01:17;;;;;;;12.98;6.90;;;;;;;;;;5039393;28;20571;-69
2021/01/17 09:03:43;;;;;;;13.93;7.10;;;;;;;;;;5046964;28;20045;-68
2021/01/17 09:06:11;;;;;;;;;;;;;;;;;;5048283;28;20509;-69
2021/01/17 09:08:39;;;;;;;17.50;7.60;;;;;;;;;;5042856;28;19925;-68
2021/01/17 09:11:24;;;;;;;15.48;8.20;;;;;;;;;;5040484;28;20420;-69
2021/01/17 09:14:09;;;;;;;18.55;8.90;;;;;;;;;;5043201;28;20041;-68
2021/01/17 09:16:37;;;;;;;16.10;8.77;;;;;;;;;;5041988;28;20103;-68
2021/01/17 09:19:07;;;;;;;18.38;8.93;;;;;;;;;;5039640;28;20124;-69
2021/01/17 09:21:33;;;;;;;15.77;8.93;;;;;;;;;;5045085;28;20037;-68
2021/01/17 09:24:05;;;;;;;16.90;8.25;;;;;;;;;;5047165;28;20047;-68
2021/01/17 09:26:31;;;;;;;17.23;9.05;;;;;;;;;;5042312;28;20043;-68
2021/01/17 09:28:57;;;;;;;19.23;10.90;;;;;;;;;;5041558;28;20111;-68
2021/01/17 09:31:24;;;;;;;23.75;13.27;;;;;;;;;;5040576;28;20124;-68
2021/01/17 09:33:50;;;;;;;28.67;13.10;;;;;;;;;;5040391;28;20053;-68
2021/01/17 09:36:21;;;;;;;22.98;12.18;;;;;;;;;;5041795;28;20128;-68
2021/01/17 09:38:47;;;;;;;22.88;11.45;;;;;;;;;;5040902;28;20505;-68
2021/01/17 09:41:20;;;;;;;21.55;11.00;;;;;;;;;;5043743;28;20041;-68
2021/01/17 09:43:47;;;;;;;20.02;11.10;;;;;;;;;;5045890;28;20405;-68
2021/01/17 09:46:20;;;;;;;19.10;9.63;;;;;;;;;;5044030;28;20045;-69
2021/01/17 09:48:56;;;;;;;16.92;9.32;;;;;;;;;;5044255;28;20067;-69
2021/01/17 09:51:23;;;;;;;15.98;8.95;;;;;;;;;;5040735;28;20068;-68
2021/01/17 09:53:53;;;;;;;15.05;8.13;;;;;;;;;;5037271;28;20515;-68
2021/01/17 09:56:19;;;;;;;14.32;8.38;;;;;;;;;;5039108;28;20677;-68
2021/01/17 09:58:45;;;;;;;16.65;8.80;;;;;;;;;;5045801;28;20048;-68
2021/01/17 10:01:20;;;;;;;21.52;9.05;;;;;;;;;;5038285;28;20072;-68
2021/01/17 10:03:48;;;;;;;20.42;8.70;;;;;;;;;;5043996;28;20053;-68
2021/01/17 10:06:17;;;;;;;18.85;8.88;;;;;;;;;;5041813;28;20111;-68
2021/01/17 10:08:46;;;;;;;16.50;9.60;;;;;;;;;;5048275;28;20045;-68
2021/01/17 10:11:12;;;;;;;15.75;8.63;;;;;;;;;;5044947;28;20095;-68
2021/01/17 10:13:47;;;;;;;18.63;10.18;;;;;;;;;;5041117;28;20091;-68
2021/01/17 10:16:23;;;;;;;17.58;7.78;;;;;;;;;;5046534;28;20049;-68
2021/01/17 10:18:50;;;;;;;13.90;8.07;;;;;;;;;;5042305;28;20068;-68
2021/01/17 10:21:20;;;;;;;15.63;8.00;;;;;;;;;;5038642;28;20112;-68
2021/01/17 10:23:50;;;;;;;15.32;7.82;;;;;;;;;;5042328;28;20305;-68
2021/01/17 10:26:23;;;;;;;13.48;7.45;;;;;;;;;;5042611;28;20037;-68
2021/01/17 10:28:49;;;;;;;17.75;8.07;;;;;;;;;;5034237;28;20120;-68
2021/01/17 10:31:21;;;;;;;11.77;6.60;;;;;;;;;;5041681;28;20096;-68
2021/01/17 10:33:48;;;;;;;14.40;7.32;;;;;;;;;;5043518;28;20489;-68
2021/01/17 10:36:16;;;;;;;16.52;8.27;;;;;;;;;;5037920;28;20071;-68
2021/01/17 10:38:42;;;;;;;16.50;7.88;;;;;;;;;;5035894;28;20038;-68
2021/01/17 10:41:09;;;;;;;;;;;;;;;;;;5041822;28;20041;-69
2021/01/17 10:43:36;;;;;;;14.68;7.43;;;;;;;;;;5040244;28;19936;-68
2021/01/17 10:46:03;;;;;;;;;;;;;;;;;;5042927;28;20128;-68
2021/01/17 10:48:30;;;;;;;14.60;7.53;;;;;;;;;;5037636;28;20020;-68
2021/01/17 10:51:02;;;;;;;13.32;7.68;;;;;;;;;;5050707;28;20040;-69
2021/01/17 10:53:28;;;;;;;16.42;8.30;;;;;;;;;;5043837;28;20048;-68
2021/01/17 10:55:55;;;;;;;15.00;7.65;;;;;;;;;;5042306;28;20522;-68
2021/01/17 10:58:23;;;;;;;14.90;8.13;;;;;;;;;;5039277;28;20056;-68
2021/01/17 11:00:50;;;;;;;14.23;7.63;;;;;;;;;;5046968;28;20041;-68
2021/01/17 11:03:25;;;;;;;13.35;7.78;;;;;;;;;;5045528;28;20087;-68
2021/01/17 11:06:02;;;;;;;17.88;8.95;;;;;;;;;;5046211;28;20041;-68
2021/01/17 11:08:29;;;;;;;16.88;8.27;;;;;;;;;;5038249;28;20040;-68
2021/01/17 11:10:58;;;;;;;16.58;8.85;;;;;;;;;;5038142;28;20403;-68
2021/01/17 11:13:24;;;;;;;16.08;8.40;;;;;;;;;;5039868;28;20042;-68
2021/01/17 11:15:50;;;;;;;13.18;7.93;;;;;;;;;;5042790;28;20053;-68
2021/01/17 11:18:20;;;;;;;17.60;8.35;;;;;;;;;;5041068;28;20041;-68
2021/01/17 11:20:47;;;;;;;12.63;7.30;;;;;;;;;;5037029;28;20072;-68
2021/01/17 11:23:13;;;;;;;14.95;8.18;;;;;;;;;;5045859;28;20029;-68
2021/01/17 11:25:39;;;;;;;15.43;8.60;;;;;;;;;;5043261;28;20528;-68
2021/01/17 11:28:07;;;;;;;14.38;8.43;;;;;;;;;;5041379;28;20058;-68
2021/01/17 11:30:34;;;;;;;14.77;7.85;;;;;;;;;;5043516;28;20087;-70
2021/01/17 11:33:10;;;;;;;14.48;8.13;;;;;;;;;;5043001;28;20444;-68
2021/01/17 11:35:37;;;;;;;17.52;8.57;;;;;;;;;;5039866;28;20492;-68
2021/01/17 11:38:04;;;;;;;;;;;;;;;;;;5042597;28;20045;-69
2021/01/17 11:40:30;;;;;;;16.08;8.82;;;;;;;;;;5047771;28;20346;-68
2021/01/17 11:43:03;;;;;;;19.00;9.93;;;;;;;;;;5040661;28;20045;-69
2021/01/17 11:45:29;;;;;;;16.15;8.80;;;;;;;;;;5042035;28;20033;-68
2021/01/17 11:47:59;;;;;;;17.92;9.60;;;;;;;;;;5043829;28;20057;-69
2021/01/17 11:50:25;;;;;;;15.63;8.80;;;;;;;;;;5047353;28;20040;-68
2021/01/17 11:52:59;;;;;;;16.95;9.38;;;;;;;;;;5049480;28;20124;-68
2021/01/17 11:55:29;;;;;;;17.98;9.00;;;;;;;;;;5044321;28;20475;-68
2021/01/17 11:58:14;;;;;;;15.20;8.27;;;;;;;;;;5046810;28;20064;-68
2021/01/17 12:00:54;;;;;;;15.93;7.72;;;;;;;;;;5046912;28;20513;-68
2021/01/17 12:03:24;;;;;;;12.98;7.75;;;;;;;;;;5049167;28;20099;-68
2021/01/17 12:06:00;;;;;;;16.02;8.13;;;;;;;;;;5044661;28;20148;-68
2021/01/17 12:08:46;;;;;;;15.43;8.52;;;;;;;;;;5046825;28;20041;-69
2021/01/17 12:11:25;;;;;;;18.95;11.75;;;;;;;;;;5044899;28;20046;-69
2021/01/17 12:13:51;;;;;;;15.52;9.43;;;;;;;;;;5046025;28;20037;-68
2021/01/17 12:16:30;;;;;;;13.90;8.23;;;;;;;;;;5049979;28;20115;-68
2021/01/17 12:18:57;;;;;;;17.60;9.93;;;;;;;;;;5048147;28;20382;-69
2021/01/17 12:21:24;;;;;;;17.48;9.75;;;;;;;;;;5049964;28;20382;-68
2021/01/17 12:23:50;;;;;;;19.95;10.98;;;;;;;;;;5049493;28;20045;-69
2021/01/17 12:26:18;;;;;;;19.73;10.45;;;;;;;;;;5047791;28;20071;-69
2021/01/17 12:28:44;;;;;;;20.38;11.15;;;;;;;;;;5046564;28;20157;-69
2021/01/17 12:31:11;;;;;;;21.87;10.43;;;;;;;;;;5049052;28;20041;-69
2021/01/17 12:33:37;;;;;;;20.35;11.45;;;;;;;;;;5050282;28;20508;-68
2021/01/17 12:36:05;;;;;;;18.52;10.93;;;;;;;;;;5046384;28;20059;-68
2021/01/17 12:38:31;;;;;;;21.17;11.85;;;;;;;;;;5045354;28;20041;-68
2021/01/17 12:40:57;;;;;;;28.02;12.57;;;;;;;;;;5047266;28;20136;-68
2021/01/17 12:43:23;;;;;;;22.10;12.27;;;;;;;;;;5045624;28;20044;-68
2021/01/17 12:45:49;;;;;;;25.23;12.90;;;;;;;;;;5048970;28;20528;-68
2021/01/17 12:48:16;;;;;;;24.10;12.98;;;;;;;;;;5043559;28;20052;-68
2021/01/17 12:50:42;;;;;;;26.63;13.48;;;;;;;;;;5048918;28;20091;-68
2021/01/17 12:53:08;;;;;;;21.10;13.00;;;;;;;;;;5046654;28;20500;-68
2021/01/17 12:55:37;;;;;;;31.33;20.20;;;;;;;;;;5048524;28;20040;-68
2021/01/17 12:58:06;;;;;;;28.35;15.05;;;;;;;;;;5046190;28;20048;-69
2021/01/17 13:00:32;;;;;;;24.27;12.57;;;;;;;;;;5046798;28;20041;-68
2021/01/17 13:02:58;;;;;;;23.02;11.93;;;;;;;;;;5045702;28;20068;-68
2021/01/17 13:05:24;;;;;;;28.23;13.35;;;;;;;;;;5043609;28;20056;-68
2021/01/17 13:07:51;;;;;;;28.77;14.15;;;;;;;;;;5046829;28;20048;-68
2021/01/17 13:10:17;;;;;;;30.05;13.88;;;;;;;;;;5048212;28;20456;-68
2021/01/17 13:12:43;;;;;;;24.35;13.93;;;;;;;;;;5046875;28;20124;-68
2021/01/17 13:15:09;;;;;;;25.33;14.77;;;;;;;;;;5046936;28;20030;-68
2021/01/17 13:17:35;;;;;;;31.65;15.65;;;;;;;;;;5047221;28;20805;-69
2021/01/17 13:20:02;;;;;;;31.60;15.80;;;;;;;;;;5049466;28;20045;-68
2021/01/17 13:22:29;;;;;;;27.65;15.45;;;;;;;;;;5045142;28;20048;-68
2021/01/17 13:24:55;;;;;;;28.13;14.52;;;;;;;;;;5045086;28;20492;-68
2021/01/17 13:27:21;;;;;;;25.40;14.18;;;;;;;;;;5045591;28;20045;-69
2021/01/17 13:29:50;;;;;;;29.92;14.77;;;;;;;;;;5046807;28;20037;-68
2021/01/17 13:32:16;;;;;;;29.52;14.25;;;;;;;;;;5045957;28;20059;-68
2021/01/17 13:34:42;;;;;;;28.60;14.13;;;;;;;;;;5050842;28;20441;-68
2021/01/17 13:37:13;;;;;;;24.42;12.80;;;;;;;;;;5045840;28;20044;-68
2021/01/17 13:39:40;;;;;;;27.65;14.10;;;;;;;;;;5046905;28;20661;-69
2021/01/17 13:42:06;;;;;;;25.92;13.75;;;;;;;;;;5045137;28;20041;-69
2021/01/17 13:44:32;;;;;;;27.67;14.32;;;;;;;;;;5045071;28;20086;-68
2021/01/17 13:46:58;;;;;;;30.25;14.80;;;;;;;;;;5044384;28;20207;-68
2021/01/17 13:49:24;;;;;;;26.40;13.57;;;;;;;;;;5048137;28;20032;-69
2021/01/17 13:51:51;;;;;;;29.33;14.95;;;;;;;;;;5047717;28;20044;-69
2021/01/17 13:54:17;;;;;;;26.20;13.50;;;;;;;;;;5046921;28;20041;-68
2021/01/17 13:56:43;;;;;;;32.42;14.40;;;;;;;;;;5045838;28;20107;-69
2021/01/17 13:59:14;;;;;;;25.75;14.35;;;;;;;;;;5045323;28;20041;-69
2021/01/17 14:01:40;;;;;;;28.33;13.85;;;;;;;;;;5046493;28;20041;-68
2021/01/17 14:04:06;;;;;;;25.90;12.85;;;;;;;;;;5044880;28;20084;-69
2021/01/17 14:06:38;;;;;;;29.85;14.32;;;;;;;;;;5046949;28;20033;-68
2021/01/17 14:09:05;;;;;;;23.95;12.32;;;;;;;;;;5046011;28;20064;-68
2021/01/17 14:11:31;;;;;;;28.25;13.20;;;;;;;;;;5037379;28;20037;-69
2021/01/17 14:13:57;;;;;;;24.75;12.50;;;;;;;;;;5041171;28;20139;-69
2021/01/17 14:16:23;;;;;;;25.63;13.18;;;;;;;;;;5046423;28;20040;-68
2021/01/17 14:18:50;;;;;;;28.23;13.07;;;;;;;;;;5048980;28;20060;-68
2021/01/17 14:21:16;;;;;;;29.13;14.05;;;;;;;;;;5047436;28;20888;-69
2021/01/17 14:23:42;;;;;;;25.58;12.73;;;;;;;;;;5041629;28;20037;-68
2021/01/17 14:26:08;;;;;;;30.58;13.07;;;;;;;;;;5042796;28;20096;-68
2021/01/17 14:28:34;;;;;;;29.33;13.73;;;;;;;;;;5040385;28;20052;-68
2021/01/17 14:31:00;;;;;;;27.95;13.80;;;;;;;;;;5041546;28;20045;-69
2021/01/17 14:33:26;;;;;;;29.52;14.80;;;;;;;;;;5047464;28;20519;-68
2021/01/17 14:35:53;;;;;;;27.70;14.60;;;;;;;;;;5046051;28;20477;-69
2021/01/17 14:38:19;;;;;;;26.95;14.35;;;;;;;;;;5045834;28;20072;-69